Main page
METAR-TAF:

METAR-TAF

Airports :

Seymour Airport

Baltra Island, Galápagos, Ecuador

latitude: 00-27-14S, longitude: 090-15-57W, elevation: 63 m

Current weather observation

The report was made 3 hours and 42 minutes ago, at 22:00 UTC
Wind 14 kt from the South/Southeast
Temperature 25°C
Humidity 61%
Pressure 1012 hPa
Visibility 10 km or more
Scattered clouds at a height of 2000 ft

METAR: SEGS 052200Z 16014KT 9999 SCT020 25/17 Q1012 RMK A2988

Time: 19:42 (01:42 UTC)


TAF: missing

Weather observations and forecasts of more than 4000 airports (METAR and TAF reports).

The available stations are represented by yellow and red dots on the map.

Hover mouse over dot to see the name of the station.

Then click to see weather observations and forecasts.

To change the map : click on the green buttons with a black cross to zoom in, on the green button with a dash to zoom out, or on the green arrows for adjacent maps.


METAR-TAF: